Time;durP1;ratioP1;P1;durP2;ratioP2;P2;SDS_P1;SDS_P2;PMS_P1;PMS_P2;Temp;Humidity;BMP_temperature;BMP_pressure;BME280_temperature;BME280_humidity;BME280_pressure;Samples;Min_cycle;Max_cycle;Signal;HPM_P1;HPM_P2
2021/06/06 00:01:32;;;;;;;102.65;45.00;;;14.90;99.90;;;;;;5012839;28;20117;-75
2021/06/06 00:04:00;;;;;;;107.63;43.58;;;14.90;99.90;;;;;;5011196;28;20470;-75
2021/06/06 00:06:32;;;;;;;116.45;44.80;;;14.90;99.90;;;;;;5000494;28;20139;-80
2021/06/06 00:09:00;;;;;;;105.75;42.95;;;14.90;99.90;;;;;;4992904;28;20372;-79
2021/06/06 00:11:30;;;;;;;92.97;42.58;;;15.00;99.90;;;;;;5005008;28;20046;-75
2021/06/06 00:14:00;;;;;;;91.25;41.75;;;14.90;99.90;;;;;;5006825;28;20030;-79
2021/06/06 00:16:37;;;;;;;85.57;41.67;;;14.80;99.90;;;;;;5017067;28;20132;-79
2021/06/06 00:19:08;;;;;;;83.75;39.63;;;14.80;99.90;;;;;;5013825;28;20048;-79
2021/06/06 00:21:36;;;;;;;86.03;40.30;;;14.90;99.90;;;;;;5006991;28;20046;-81
2021/06/06 00:24:06;;;;;;;83.88;40.67;;;14.80;99.90;;;;;;5015909;28;20115;-80
2021/06/06 00:26:32;;;;;;;80.15;38.90;;;14.80;99.90;;;;;;4988405;28;20042;-81
2021/06/06 00:28:58;;;;;;;83.32;39.47;;;14.80;99.90;;;;;;5013352;28;20048;-81
2021/06/06 00:31:24;;;;;;;78.40;39.42;;;14.80;99.90;;;;;;5016799;28;20057;-81
2021/06/06 00:33:51;;;;;;;79.88;39.80;;;14.80;99.90;;;;;;4992644;28;20034;-81
2021/06/06 00:36:18;;;;;;;81.30;40.25;;;14.80;99.90;;;;;;5004625;28;20155;-81
2021/06/06 00:38:44;;;;;;;84.80;40.88;;;14.80;99.90;;;;;;4993344;28;20044;-81
2021/06/06 00:41:11;;;;;;;76.18;41.80;;;14.80;99.90;;;;;;5030398;28;20030;-76
2021/06/06 00:43:37;;;;;;;77.38;39.40;;;14.80;99.90;;;;;;5024992;28;20046;-76
2021/06/06 00:46:08;;;;;;;75.10;41.15;;;14.80;99.90;;;;;;5007349;28;20037;-81
2021/06/06 00:48:36;;;;;;;81.40;42.40;;;14.80;99.90;;;;;;5022168;28;20042;-81
2021/06/06 00:51:17;;;;;;;79.85;42.22;;;14.80;99.90;;;;;;4994271;28;20108;-81
2021/06/06 00:54:01;;;;;;;77.40;41.08;;;14.80;99.90;;;;;;5019693;28;20113;-79
2021/06/06 00:56:27;;;;;;;81.43;41.10;;;14.80;99.90;;;;;;5015328;28;20065;-79
2021/06/06 00:58:56;;;;;;;81.85;40.72;;;14.80;99.90;;;;;;5012721;28;20042;-79
2021/06/06 01:01:24;;;;;;;77.63;42.15;;;14.80;99.90;;;;;;5008508;28;20053;-79
2021/06/06 01:03:54;;;;;;;71.53;41.08;;;14.80;99.90;;;;;;5021834;28;20034;-79
2021/06/06 01:06:25;;;;;;;78.47;40.42;;;14.90;99.90;;;;;;5025829;28;20091;-79
2021/06/06 01:08:52;;;;;;;69.43;39.67;;;14.80;99.90;;;;;;5001894;28;20037;-76
2021/06/06 01:11:23;;;;;;;70.38;38.22;;;14.90;99.90;;;;;;4998528;28;20091;-76
2021/06/06 01:13:59;;;;;;;69.65;39.28;;;14.90;99.90;;;;;;5011222;28;20030;-76
2021/06/06 01:16:46;;;;;;;66.93;39.13;;;14.90;99.90;;;;;;5023045;28;20045;-76
2021/06/06 01:19:34;;;;;;;66.18;38.60;;;14.90;99.90;;;;;;5032288;28;20041;-76
2021/06/06 01:22:25;;;;;;;65.75;38.97;;;15.00;99.90;;;;;;4999571;28;20049;-76
2021/06/06 01:24:55;;;;;;;70.78;38.85;;;14.90;99.90;;;;;;5014897;28;20034;-76
2021/06/06 01:27:23;;;;;;;72.32;39.13;;;14.90;99.90;;;;;;4986532;28;20449;-76
2021/06/06 01:29:58;;;;;;;69.35;39.67;;;14.90;99.90;;;;;;4989725;28;20129;-81
2021/06/06 01:32:40;;;;;;;67.87;41.27;;;14.90;99.90;;;;;;5028741;28;20085;-81
2021/06/06 01:35:30;;;;;;;67.72;40.20;;;14.90;99.90;;;;;;5010775;28;20052;-81
2021/06/06 01:38:06;;;;;;;64.50;39.17;;;14.90;99.90;;;;;;4963988;28;20069;-79
2021/06/06 01:40:38;;;;;;;73.50;39.38;;;14.90;99.90;;;;;;5010561;28;20046;-79
2021/06/06 01:43:13;;;;;;;62.13;37.88;;;14.90;99.90;;;;;;5015048;28;20045;-79
2021/06/06 01:45:47;;;;;;;67.18;37.28;;;15.30;99.90;;;;;;5011618;28;20034;-79
2021/06/06 01:48:15;;;;;;;66.05;38.17;;;14.90;99.90;;;;;;5033851;28;20047;-76
2021/06/06 01:50:45;;;;;;;60.90;37.85;;;14.90;99.90;;;;;;5030425;28;20041;-76
2021/06/06 01:53:15;;;;;;;65.10;38.72;;;14.90;99.90;;;;;;4997426;28;20042;-76
2021/06/06 01:55:45;;;;;;;62.10;38.35;;;14.90;99.90;;;;;;4978592;28;20042;-76
2021/06/06 01:58:12;;;;;;;62.88;37.72;;;14.90;99.90;;;;;;5014031;28;20108;-76
2021/06/06 02:00:47;;;;;;;66.68;38.13;;;14.90;99.90;;;;;;5018112;28;20045;-76
2021/06/06 02:03:14;;;;;;;60.00;37.80;;;14.90;99.90;;;;;;5019065;28;20551;-78
2021/06/06 02:05:40;;;;;;;56.58;37.13;;;14.90;99.90;;;;;;5017887;28;20034;-76
2021/06/06 02:08:11;;;;;;;56.97;35.17;;;14.90;99.90;;;;;;5020080;28;20099;-76
2021/06/06 02:10:44;;;;;;;58.40;36.45;;;14.90;99.90;;;;;;5009202;28;20093;-76
2021/06/06 02:13:18;;;;;;;54.42;35.72;;;14.90;99.90;;;;;;5005690;28;20546;-76
2021/06/06 02:15:43;;;;;;;61.72;36.38;;;14.80;99.90;;;;;;5008493;28;20041;-79
2021/06/06 02:18:10;;;;;;;57.05;36.28;;;14.80;99.90;;;;;;5000962;28;20044;-79
2021/06/06 02:20:44;;;;;;;53.50;35.22;;;14.90;99.90;;;;;;5007438;28;20046;-79
2021/06/06 02:23:10;;;;;;;51.47;37.10;;;14.90;99.90;;;;;;4990960;28;20056;-76
2021/06/06 02:25:40;;;;;;;56.83;35.22;;;14.90;99.90;;;;;;5001974;28;20033;-76
2021/06/06 02:28:24;;;;;;;54.20;35.58;;;14.90;99.90;;;;;;5013259;28;20038;-76
2021/06/06 02:31:20;;;;;;;45.92;33.47;;;14.90;99.90;;;;;;5034012;28;20072;-76
2021/06/06 02:34:05;;;;;;;49.65;33.85;;;14.90;99.90;;;;;;4985622;28;20046;-76
2021/06/06 02:36:33;;;;;;;45.83;34.08;;;14.90;99.90;;;;;;5025022;28;20038;-76
2021/06/06 02:39:14;;;;;;;47.63;33.90;;;14.90;99.90;;;;;;5032293;28;20064;-76
2021/06/06 02:41:51;;;;;;;49.80;34.42;;;14.80;99.90;;;;;;5002597;28;20104;-76
2021/06/06 02:44:27;;;;;;;47.17;33.72;;;14.80;99.90;;;;;;5014733;28;20038;-76
2021/06/06 02:46:54;;;;;;;51.35;35.20;;;14.80;99.90;;;;;;5009577;28;20034;-76
2021/06/06 02:49:26;;;;;;;47.58;34.35;;;15.00;99.90;;;;;;5015455;28;20030;-76
2021/06/06 02:51:59;;;;;;;50.47;34.05;;;15.30;99.90;;;;;;5024735;28;20030;-76
2021/06/06 02:54:32;;;;;;;50.35;34.70;;;14.70;99.90;;;;;;5015508;28;20064;-76
2021/06/06 02:57:06;;;;;;;51.33;35.58;;;14.70;99.90;;;;;;5015983;28;20031;-76
2021/06/06 02:59:54;;;;;;;49.60;35.72;;;14.70;99.90;;;;;;4992393;28;20034;-76
2021/06/06 03:02:25;;;;;;;45.70;34.30;;;14.70;99.90;;;;;;4992411;28;20132;-80
2021/06/06 03:05:01;;;;;;;49.47;34.72;;;14.70;99.90;;;;;;4991411;28;20049;-80
2021/06/06 03:07:37;;;;;;;51.72;33.95;;;14.70;99.90;;;;;;5017473;28;20049;-80
2021/06/06 03:10:06;;;;;;;49.75;35.72;;;14.70;99.90;;;;;;4983418;28;20034;-80
2021/06/06 03:12:32;;;;;;;48.47;35.67;;;14.70;99.90;;;;;;5025515;28;20038;-79
2021/06/06 03:15:01;;;;;;;50.25;35.60;;;14.80;99.90;;;;;;5030074;28;20034;-79
2021/06/06 03:17:36;;;;;;;49.10;35.67;;;14.80;99.90;;;;;;4999111;28;20471;-80
2021/06/06 03:20:10;;;;;;;53.10;34.45;;;14.70;99.90;;;;;;5001629;28;20053;-76
2021/06/06 03:22:40;;;;;;;48.78;35.30;;;14.70;99.90;;;;;;5012237;28;20492;-75
2021/06/06 03:25:32;;;;;;;47.65;33.83;;;14.70;99.90;;;;;;5018320;28;20030;-75
2021/06/06 03:27:58;;;;;;;50.13;34.88;;;14.70;99.90;;;;;;4998790;28;20046;-75
2021/06/06 03:30:38;;;;;;;52.70;35.83;;;14.70;99.90;;;;;;5029881;28;20124;-79
2021/06/06 03:33:53;;;;;;;49.25;34.78;;;14.60;99.90;;;;;;5013354;28;20041;-80
2021/06/06 03:36:30;;;;;;;51.00;35.10;;;14.70;99.90;;;;;;5001368;28;20050;-76
2021/06/06 03:38:58;;;;;;;53.97;35.33;;;14.70;99.90;;;;;;5003999;28;20048;-76
2021/06/06 03:41:26;;;;;;;48.35;34.13;;;14.60;99.90;;;;;;5013732;28;20125;-76
2021/06/06 03:43:52;;;;;;;53.28;34.33;;;14.60;99.90;;;;;;5004965;28;20569;-76
2021/06/06 03:46:19;;;;;;;53.38;34.67;;;14.60;99.90;;;;;;5030955;28;20128;-76
2021/06/06 03:48:45;;;;;;;50.63;34.22;;;14.50;99.90;;;;;;4986587;28;20379;-76
2021/06/06 03:51:14;;;;;;;49.28;34.03;;;14.50;99.90;;;;;;5027812;28;20038;-76
2021/06/06 03:53:40;;;;;;;55.53;35.45;;;14.60;99.90;;;;;;5015863;28;20037;-76
2021/06/06 03:56:09;;;;;;;49.65;34.67;;;14.50;99.90;;;;;;4996026;28;20026;-76
2021/06/06 03:58:37;;;;;;;47.28;34.60;;;14.50;99.90;;;;;;5013608;28;20041;-80
2021/06/06 04:01:04;;;;;;;54.92;36.10;;;14.50;99.90;;;;;;5028052;28;20037;-80
2021/06/06 04:03:30;;;;;;;47.88;35.30;;;14.60;99.90;;;;;;4997634;28;20037;-80
2021/06/06 04:05:56;;;;;;;49.15;35.97;;;14.50;99.90;;;;;;5032950;28;20045;-77
2021/06/06 04:08:23;;;;;;;47.38;36.10;;;14.50;99.90;;;;;;4988905;28;20030;-76
2021/06/06 04:10:52;;;;;;;54.88;36.75;;;14.40;99.90;;;;;;5016902;28;20076;-81
2021/06/06 04:13:21;;;;;;;52.30;36.97;;;14.50;99.90;;;;;;5009617;28;20034;-81
2021/06/06 04:15:48;;;;;;;54.90;37.53;;;14.50;99.90;;;;;;4987191;28;20038;-81
2021/06/06 04:18:21;;;;;;;55.65;37.92;;;14.40;99.90;;;;;;4982291;28;20486;-79
2021/06/06 04:20:49;;;;;;;50.38;37.65;;;14.40;99.90;;;;;;5021699;28;20053;-81
2021/06/06 04:23:16;;;;;;;52.38;37.15;;;14.40;99.90;;;;;;5021134;28;20057;-82
2021/06/06 04:25:42;;;;;;;55.25;38.03;;;14.40;99.90;;;;;;5013119;28;20037;-81
2021/06/06 04:28:08;;;;;;;52.97;36.78;;;14.40;99.90;;;;;;5006857;28;20033;-81
2021/06/06 04:30:35;;;;;;;50.55;36.22;;;14.40;99.90;;;;;;5006815;28;20062;-82
2021/06/06 04:33:07;;;;;;;59.13;36.28;;;14.40;99.90;;;;;;4980829;28;20046;-81
2021/06/06 04:35:36;;;;;;;48.78;33.33;;;14.40;99.90;;;;;;4997382;28;20538;-81
2021/06/06 04:38:03;;;;;;;49.22;32.67;;;14.40;99.90;;;;;;4977603;28;20511;-76
2021/06/06 04:40:32;;;;;;;47.95;32.67;;;14.40;99.90;;;;;;4989944;28;20117;-76
2021/06/06 04:43:00;;;;;;;44.47;32.05;;;14.30;99.90;;;;;;4983485;28;20042;-76
2021/06/06 04:45:26;;;;;;;48.85;33.20;;;14.30;99.90;;;;;;4999269;28;20561;-77
2021/06/06 04:48:27;;;;;;;47.70;33.08;;;14.30;99.90;;;;;;4975014;28;20034;-76
2021/06/06 04:50:56;;;;;;;45.25;31.83;;;14.30;99.90;;;;;;5009260;28;20046;-77
2021/06/06 04:53:22;;;;;;;48.58;33.42;;;14.30;99.90;;;;;;4983959;28;20050;-76
2021/06/06 04:55:52;;;;;;;47.90;31.58;;;14.40;99.90;;;;;;4988146;28;20038;-76
2021/06/06 04:58:20;;;;;;;42.45;30.08;;;14.40;99.90;;;;;;4999859;28;20038;-76
2021/06/06 05:00:49;;;;;;;35.75;25.02;;;14.30;99.90;;;;;;4997926;28;20069;-81
2021/06/06 05:03:16;;;;;;;33.28;23.80;;;14.40;99.90;;;;;;4981717;28;20450;-82
2021/06/06 05:05:43;;;;;;;30.33;23.45;;;14.30;99.90;;;;;;4998977;28;20034;-80
2021/06/06 05:08:10;;;;;;;33.75;24.67;;;14.40;99.90;;;;;;5006328;28;20050;-79
2021/06/06 05:10:38;;;;;;;36.30;26.15;;;14.40;99.90;;;;;;5003411;28;20037;-76
2021/06/06 05:13:06;;;;;;;44.85;29.23;;;14.40;99.90;;;;;;4983153;28;20031;-76
2021/06/06 05:15:32;;;;;;;45.47;30.33;;;14.40;99.90;;;;;;4975463;28;20042;-76
2021/06/06 05:17:58;;;;;;;46.50;30.30;;;14.50;99.90;;;;;;4992418;28;20189;-76
2021/06/06 05:20:29;;;;;;;49.28;30.25;;;14.50;99.90;;;;;;4999636;28;20037;-76
2021/06/06 05:22:55;;;;;;;44.70;30.05;;;14.50;99.90;;;;;;5004249;28;20441;-76
2021/06/06 05:25:25;;;;;;;44.92;29.58;;;14.50;99.90;;;;;;4984117;28;20066;-76
2021/06/06 05:27:51;;;;;;;40.70;28.58;;;14.50;99.90;;;;;;4994947;28;20085;-79
2021/06/06 05:30:22;;;;;;;41.50;27.25;;;14.50;99.90;;;;;;5008841;28;20046;-79
2021/06/06 05:32:52;;;;;;;42.05;27.60;;;14.50;99.90;;;;;;4971932;28;20038;-79
2021/06/06 05:35:19;;;;;;;40.90;26.52;;;14.50;99.90;;;;;;4991196;28;20030;-76
2021/06/06 05:37:48;;;;;;;41.10;26.75;;;14.50;99.90;;;;;;4982135;28;20030;-79
2021/06/06 05:40:15;;;;;;;47.13;28.75;;;14.50;99.90;;;;;;4998064;28;20034;-80
2021/06/06 05:42:44;;;;;;;49.13;29.50;;;14.50;99.90;;;;;;5001884;28;20071;-82
2021/06/06 05:45:14;;;;;;;52.67;29.58;;;14.50;99.90;;;;;;4970541;28;20057;-80
2021/06/06 05:47:40;;;;;;;46.58;29.38;;;14.50;99.90;;;;;;4996550;28;20129;-80
2021/06/06 05:50:09;;;;;;;51.50;30.73;;;14.50;99.90;;;;;;5012194;28;20517;-80
2021/06/06 05:52:36;;;;;;;54.78;31.42;;;14.50;99.90;;;;;;4994530;28;20049;-76
2021/06/06 05:55:06;;;;;;;55.05;32.60;;;14.60;99.90;;;;;;4985200;28;20034;-76
2021/06/06 05:57:32;;;;;;;61.13;33.47;;;14.50;99.90;;;;;;5000222;28;20045;-76
2021/06/06 06:00:00;;;;;;;57.92;32.85;;;14.70;99.90;;;;;;4998419;28;20049;-80
2021/06/06 06:02:26;;;;;;;58.13;32.80;;;14.50;99.90;;;;;;4983803;28;20042;-80
2021/06/06 06:04:52;;;;;;;64.28;32.42;;;14.50;99.90;;;;;;5003243;28;20034;-80
2021/06/06 06:07:21;;;;;;;57.60;33.20;;;14.50;99.90;;;;;;4994103;28;20034;-79
2021/06/06 06:09:46;;;;;;;57.17;33.30;;;14.50;99.90;;;;;;4998446;28;20034;-79
2021/06/06 06:12:12;;;;;;;64.40;33.90;;;14.50;99.90;;;;;;4998186;28;20038;-74
2021/06/06 06:14:38;;;;;;;60.75;33.60;;;14.50;99.90;;;;;;5015319;28;20074;-76
2021/06/06 06:17:09;;;;;;;62.88;33.28;;;14.40;99.90;;;;;;4998722;28;20418;-75
2021/06/06 06:19:35;;;;;;;59.25;32.75;;;14.40;99.90;;;;;;4978774;28;20046;-86
2021/06/06 06:22:03;;;;;;;69.28;36.20;;;14.40;99.90;;;;;;4990265;28;20042;-84
2021/06/06 06:24:30;;;;;;;60.78;33.50;;;14.90;99.90;;;;;;4985246;28;20066;-84
2021/06/06 06:26:57;;;;;;;50.67;27.88;;;14.40;99.90;;;;;;4984029;28;20039;-85
2021/06/06 06:29:28;;;;;;;56.35;30.17;;;14.40;99.90;;;;;;4998187;28;20042;-86
2021/06/06 06:31:55;;;;;;;60.95;30.10;;;14.30;99.90;;;;;;4966022;28;20050;-86
2021/06/06 06:34:24;;;;;;;53.17;28.50;;;14.40;99.90;;;;;;4980448;28;20045;-85
2021/06/06 06:36:53;;;;;;;53.22;26.27;;;14.50;99.90;;;;;;4985532;28;20486;-83
2021/06/06 06:39:23;;;;;;;45.20;22.95;;;15.00;99.90;;;;;;4959031;28;20051;-86
2021/06/06 06:41:59;;;;;;;46.30;24.30;;;14.40;99.90;;;;;;4976104;28;20101;-85
2021/06/06 06:44:29;;;;;;;41.83;22.80;;;14.40;99.90;;;;;;4994992;28;20261;-86
2021/06/06 06:47:01;;;;;;;38.70;22.95;;;14.40;99.90;;;;;;4989610;28;20636;-85
2021/06/06 06:49:30;;;;;;;43.80;23.55;;;14.40;99.90;;;;;;5011953;28;20113;-85
2021/06/06 06:51:59;;;;;;;43.80;24.55;;;14.40;99.90;;;;;;5003920;28;20112;-83
2021/06/06 06:54:27;;;;;;;48.30;25.20;;;14.40;99.90;;;;;;5011447;28;20030;-83
2021/06/06 06:56:56;;;;;;;48.92;26.15;;;14.30;99.90;;;;;;4994653;28;20052;-82
2021/06/06 06:59:27;;;;;;;45.88;25.38;;;14.40;99.90;;;;;;4982786;28;20446;-82
2021/06/06 07:01:58;;;;;;;44.60;25.63;;;14.40;99.90;;;;;;4982141;28;20038;-81
2021/06/06 07:04:33;;;;;;;46.97;26.13;;;14.40;99.90;;;;;;4957780;28;20051;-85
2021/06/06 07:07:03;;;;;;;48.15;26.35;;;14.40;99.90;;;;;;4991563;28;20060;-78
2021/06/06 07:09:28;;;;;;;48.78;27.23;;;14.40;99.90;;;;;;4963951;28;20042;-78
2021/06/06 07:11:56;;;;;;;52.40;28.80;;;14.30;99.90;;;;;;5002322;28;20046;-79
2021/06/06 07:14:23;;;;;;;57.67;31.83;;;14.30;99.90;;;;;;4976811;28;20042;-78
2021/06/06 07:16:49;;;;;;;62.28;31.83;;;14.30;99.90;;;;;;4995675;28;20101;-80
2021/06/06 07:19:15;;;;;;;59.90;32.83;;;14.30;99.90;;;;;;4995584;28;20035;-81
2021/06/06 07:21:41;;;;;;;59.25;33.50;;;14.30;99.90;;;;;;4985108;28;20085;-80
2021/06/06 07:24:08;;;;;;;64.28;34.30;;;14.50;99.90;;;;;;4983012;28;20046;-74
2021/06/06 07:26:45;;;;;;;67.07;34.28;;;14.40;99.90;;;;;;5007065;28;20555;-83
2021/06/06 07:29:33;;;;;;;57.13;34.47;;;14.40;99.90;;;;;;4991583;28;20206;-73
2021/06/06 07:32:03;;;;;;;58.72;33.72;;;14.40;99.90;;;;;;4995250;28;20085;-74
2021/06/06 07:34:37;;;;;;;68.07;35.40;;;14.50;99.90;;;;;;5001977;28;20046;-76
2021/06/06 07:37:07;;;;;;;61.03;34.80;;;14.50;99.90;;;;;;4970555;28;20042;-76
2021/06/06 07:39:40;;;;;;;57.53;34.67;;;14.50;99.90;;;;;;4987201;28;20046;-76
2021/06/06 07:42:12;;;;;;;63.42;33.78;;;14.50;99.90;;;;;;4987468;28;20054;-76
2021/06/06 07:44:41;;;;;;;61.83;33.90;;;14.50;99.90;;;;;;4966824;28;20038;-76
2021/06/06 07:47:09;;;;;;;66.80;34.70;;;14.50;99.90;;;;;;4985270;28;20050;-76
2021/06/06 07:49:41;;;;;;;59.33;34.30;;;14.50;99.90;;;;;;4966554;28;20046;-76
2021/06/06 07:52:10;;;;;;;57.67;32.83;;;14.50;99.90;;;;;;4971450;28;20529;-77
2021/06/06 07:54:36;;;;;;;49.53;30.92;;;14.40;99.90;;;;;;4980752;28;20038;-79
2021/06/06 07:57:04;;;;;;;53.47;31.52;;;14.40;99.90;;;;;;4994131;28;20043;-79
2021/06/06 07:59:35;;;;;;;55.60;31.77;;;14.50;99.90;;;;;;4994853;28;20034;-79
2021/06/06 08:02:03;;;;;;;52.30;31.50;;;14.50;99.90;;;;;;4960935;28;20045;-79
2021/06/06 08:04:31;;;;;;;50.92;31.75;;;14.50;99.90;;;;;;4962046;28;20042;-79
2021/06/06 08:07:11;;;;;;;56.35;32.90;;;14.50;99.90;;;;;;4994609;28;20389;-78
2021/06/06 08:09:37;;;;;;;60.33;32.67;;;14.80;99.90;;;;;;4989493;28;20053;-79
2021/06/06 08:12:03;;;;;;;56.05;31.33;;;14.60;99.90;;;;;;4994047;28;20183;-75
2021/06/06 08:14:29;;;;;;;56.33;30.35;;;14.50;99.90;;;;;;4986376;28;20058;-75
2021/06/06 08:16:55;;;;;;;46.90;28.95;;;14.60;99.90;;;;;;4999866;28;20030;-78
2021/06/06 08:19:22;;;;;;;45.78;27.65;;;14.60;99.90;;;;;;4995177;28;20042;-79
2021/06/06 08:21:49;;;;;;;43.83;27.65;;;14.60;99.90;;;;;;5006325;28;20045;-74
2021/06/06 08:24:15;;;;;;;48.85;28.13;;;14.60;99.90;;;;;;4988919;28;20491;-76
2021/06/06 08:26:41;;;;;;;47.10;27.60;;;14.60;99.90;;;;;;4988915;28;20040;-75
2021/06/06 08:29:08;;;;;;;43.40;23.90;;;14.60;99.90;;;;;;5007844;28;20038;-75
2021/06/06 08:31:39;;;;;;;37.38;23.60;;;14.70;99.90;;;;;;5004956;28;20064;-75
2021/06/06 08:34:07;;;;;;;40.42;22.58;;;14.60;99.90;;;;;;5008901;28;20036;-76
2021/06/06 08:36:40;;;;;;;43.33;25.17;;;14.60;99.90;;;;;;5018677;28;20037;-74
2021/06/06 08:39:10;;;;;;;41.47;23.25;;;14.60;99.90;;;;;;5029995;28;20477;-75
2021/06/06 08:42:01;;;;;;;39.10;22.90;;;14.60;99.90;;;;;;4990071;28;20046;-78
2021/06/06 08:44:37;;;;;;;39.67;24.10;;;14.60;99.90;;;;;;5018014;28;20033;-79
2021/06/06 08:47:14;;;;;;;36.15;21.83;;;14.60;99.90;;;;;;4998959;28;20049;-79
2021/06/06 08:49:51;;;;;;;38.63;20.73;;;14.50;99.90;;;;;;5027217;28;20187;-81
2021/06/06 08:52:44;;;;;;;32.55;20.20;;;14.50;99.90;;;;;;5010620;28;20089;-83
2021/06/06 08:55:42;;;;;;;35.40;20.45;;;14.60;99.90;;;;;;5012029;28;20030;-80
2021/06/06 08:58:51;;;;;;;32.45;20.30;;;14.60;99.90;;;;;;4997957;28;20040;-84
2021/06/06 09:01:23;;;;;;;32.77;21.33;;;14.60;99.90;;;;;;4994010;28;20076;-79
2021/06/06 09:03:58;;;;;;;28.52;18.30;;;14.60;99.90;;;;;;4993140;28;20047;-78
2021/06/06 09:06:37;;;;;;;24.25;16.73;;;14.60;99.90;;;;;;5006107;28;20042;-75
2021/06/06 09:09:08;;;;;;;23.27;15.00;;;14.60;99.90;;;;;;5022819;28;20041;-75
2021/06/06 09:11:35;;;;;;;19.83;14.23;;;14.60;99.90;;;;;;5021486;28;20038;-75
2021/06/06 09:14:03;;;;;;;26.15;14.85;;;14.60;99.90;;;;;;5016891;28;20802;-74
2021/06/06 09:16:36;;;;;;;19.90;14.43;;;14.80;99.90;;;;;;5002736;28;20045;-75
2021/06/06 09:19:09;;;;;;;21.92;14.68;;;14.70;99.90;;;;;;5021870;28;20088;-75
2021/06/06 09:22:13;;;;;;;21.80;14.18;;;14.70;99.90;;;;;;5024138;28;20033;-75
2021/06/06 09:24:46;;;;;;;20.88;14.55;;;14.70;99.90;;;;;;5008400;28;20054;-80
2021/06/06 09:27:21;;;;;;;22.33;14.98;;;14.80;99.90;;;;;;5003154;28;20271;-79
2021/06/06 09:30:18;;;;;;;23.48;15.05;;;14.70;99.90;;;;;;5022113;28;20144;-79
2021/06/06 09:32:45;;;;;;;22.55;13.98;;;14.70;99.90;;;;;;4978757;28;20055;-79
2021/06/06 09:35:27;;;;;;;18.95;12.32;;;14.70;99.90;;;;;;4996259;28;20030;-79
2021/06/06 09:38:18;;;;;;;16.20;11.27;;;14.80;99.90;;;;;;4998562;28;20034;-78
2021/06/06 09:40:48;;;;;;;14.15;11.43;;;14.80;99.90;;;;;;5029142;28;20175;-80
2021/06/06 09:43:22;;;;;;;16.05;12.20;;;14.80;99.90;;;;;;4990447;28;20133;-81
2021/06/06 09:45:51;;;;;;;15.15;11.63;;;14.80;99.90;;;;;;4996943;28;20034;-78
2021/06/06 09:48:33;;;;;;;14.65;10.90;;;15.10;99.90;;;;;;4998201;28;20038;-80
2021/06/06 09:51:16;;;;;;;14.32;11.02;;;15.30;99.90;;;;;;5012707;28;20046;-77
2021/06/06 09:54:05;;;;;;;15.05;10.43;;;14.90;99.90;;;;;;5014462;28;20038;-76
2021/06/06 09:56:31;;;;;;;13.30;10.27;;;14.90;99.90;;;;;;5012522;28;20060;-77
2021/06/06 09:59:34;;;;;;;12.32;9.52;;;15.00;99.90;;;;;;5010787;28;20042;-77
2021/06/06 10:02:12;;;;;;;11.35;9.45;;;14.90;99.90;;;;;;4990602;28;20038;-77
2021/06/06 10:04:46;;;;;;;15.05;9.23;;;15.00;99.90;;;;;;4992450;28;20046;-77
2021/06/06 10:07:38;;;;;;;9.23;8.23;;;14.90;99.90;;;;;;5012432;28;20042;-78
2021/06/06 10:10:17;;;;;;;9.73;8.27;;;14.90;99.90;;;;;;5018868;28;20120;-73
2021/06/06 10:12:52;;;;;;;7.40;6.43;;;15.00;99.90;;;;;;5026910;28;20036;-78
2021/06/06 10:15:44;;;;;;;7.80;6.68;;;15.00;99.90;;;;;;5004831;28;20038;-81
2021/06/06 10:18:23;;;;;;;10.20;6.65;;;15.00;99.90;;;;;;4981380;28;20573;-78
2021/06/06 10:21:33;;;;;;;7.13;6.00;;;15.00;99.90;;;;;;4974382;28;20054;-80
2021/06/06 10:24:29;;;;;;;8.60;6.40;;;15.00;99.90;;;;;;5011127;28;20038;-80
2021/06/06 10:27:14;;;;;;;8.32;6.75;;;15.00;99.90;;;;;;4998096;28;20050;-78
2021/06/06 10:30:23;;;;;;;6.78;6.05;;;15.10;99.90;;;;;;5005613;28;20042;-80
2021/06/06 10:33:22;;;;;;;5.57;5.00;;;15.00;99.90;;;;;;4955402;28;20050;-78
2021/06/06 10:36:31;;;;;;;5.82;4.63;;;14.90;99.90;;;;;;5030686;28;20390;-77
2021/06/06 10:39:14;;;;;;;6.65;4.68;;;15.00;99.90;;;;;;5017071;28;20046;-81
2021/06/06 10:42:29;;;;;;;;;;;;;;;;;;;;;
2021/06/06 10:45:06;;;;;;;5.72;4.85;;;14.90;99.90;;;;;;4980871;28;20042;-78
2021/06/06 10:48:11;;;;;;;5.35;4.68;;;14.90;99.90;;;;;;4997496;28;20037;-81
2021/06/06 10:50:45;;;;;;;5.50;4.90;;;14.90;99.90;;;;;;5034755;28;20051;-78
2021/06/06 10:54:04;;;;;;;6.30;5.15;;;14.90;99.90;;;;;;4976234;28;20387;-81
2021/06/06 10:56:44;;;;;;;6.28;4.80;;;14.90;99.90;;;;;;4994156;28;20471;-81
2021/06/06 10:59:14;;;;;;;7.38;5.03;;;14.90;99.90;;;;;;5009165;28;20041;-81
2021/06/06 11:01:44;;;;;;;6.75;4.50;;;14.90;99.90;;;;;;5007767;28;20431;-81
2021/06/06 11:04:31;;;;;;;6.70;4.85;;;14.90;99.90;;;;;;5021868;28;20034;-81
2021/06/06 11:07:20;;;;;;;4.80;4.40;;;15.00;99.90;;;;;;5025513;28;20229;-80
2021/06/06 11:10:05;;;;;;;4.93;4.35;;;15.00;99.90;;;;;;5014367;28;20069;-77
2021/06/06 11:12:44;;;;;;;;;;;;;;;;;;;;;
2021/06/06 11:15:34;;;;;;;5.40;4.90;;;14.70;99.90;;;;;;5000438;28;20038;-80
2021/06/06 11:18:11;;;;;;;5.70;5.10;;;14.80;99.90;;;;;;5012060;28;20037;-78
2021/06/06 11:21:10;;;;;;;6.53;5.28;;;14.80;99.90;;;;;;5007641;28;20064;-80
2021/06/06 11:23:54;;;;;;;6.93;5.95;;;14.80;99.90;;;;;;4999406;28;20046;-80
2021/06/06 11:26:47;;;;;;;8.75;7.03;;;14.80;99.90;;;;;;5024380;28;20037;-78
2021/06/06 11:29:52;;;;;;;11.70;8.27;;;14.70;99.90;;;;;;4999081;28;20068;-79
2021/06/06 11:32:45;;;;;;;9.85;7.55;;;14.70;99.90;;;;;;5013759;28;20072;-78
2021/06/06 11:35:48;;;;;;;12.43;8.95;;;14.80;99.90;;;;;;5033914;28;20540;-78
2021/06/06 11:38:28;;;;;;;12.32;9.85;;;14.80;99.90;;;;;;5034102;28;20445;-80
2021/06/06 11:41:21;;;;;;;13.30;10.10;;;14.80;99.90;;;;;;4981964;28;20482;-78
2021/06/06 11:44:06;;;;;;;11.50;9.63;;;14.80;99.90;;;;;;5013960;28;20061;-78
2021/06/06 11:46:39;;;;;;;11.40;8.93;;;14.90;99.90;;;;;;5013911;28;20112;-78
2021/06/06 11:49:27;;;;;;;10.02;8.20;;;14.80;99.90;;;;;;5027563;28;20037;-79
2021/06/06 11:52:05;;;;;;;12.38;8.05;;;14.90;99.90;;;;;;4996121;28;20045;-78
2021/06/06 11:55:06;;;;;;;12.00;7.72;;;14.80;99.90;;;;;;5006177;28;20125;-78
2021/06/06 11:57:40;;;;;;;9.98;7.82;;;14.80;99.90;;;;;;5017027;28;20501;-80
2021/06/06 12:00:44;;;;;;;10.55;7.25;;;14.70;99.90;;;;;;4996319;28;20078;-78
2021/06/06 12:03:41;;;;;;;11.55;7.78;;;14.70;99.90;;;;;;5002182;28;20046;-78
2021/06/06 12:06:26;;;;;;;12.77;8.88;;;14.70;99.90;;;;;;5010784;28;20045;-81
2021/06/06 12:09:40;;;;;;;11.60;7.13;;;14.70;99.90;;;;;;5005837;28;20034;-81
2021/06/06 12:12:27;;;;;;;10.38;7.70;;;14.70;99.90;;;;;;5006834;28;20033;-81
2021/06/06 12:15:25;;;;;;;10.65;7.78;;;14.70;99.90;;;;;;5019421;28;20033;-78
2021/06/06 12:18:00;;;;;;;13.20;8.23;;;14.70;99.90;;;;;;5001666;28;20037;-81
2021/06/06 12:20:26;;;;;;;12.13;10.40;;;14.70;99.90;;;;;;5013240;28;20038;-78
2021/06/06 12:23:10;;;;;;;13.48;9.88;;;14.70;99.90;;;;;;4996535;28;20470;-81
2021/06/06 12:25:42;;;;;;;17.98;9.60;;;14.80;99.90;;;;;;5011288;28;20257;-78
2021/06/06 12:28:23;;;;;;;15.40;10.05;;;14.80;99.90;;;;;;5024133;28;20056;-81
2021/06/06 12:31:00;;;;;;;15.25;10.02;;;14.80;99.90;;;;;;4981708;28;20036;-80
2021/06/06 12:33:42;;;;;;;15.00;9.70;;;14.80;99.90;;;;;;4983596;28;20046;-78
2021/06/06 12:36:16;;;;;;;18.10;10.23;;;14.80;99.90;;;;;;5000108;28;20052;-80
2021/06/06 12:38:49;;;;;;;15.70;10.88;;;14.80;99.90;;;;;;5013516;28;20096;-78
2021/06/06 12:41:16;;;;;;;22.42;12.45;;;14.80;99.90;;;;;;4982949;28;20136;-81
2021/06/06 12:43:53;;;;;;;17.25;12.10;;;14.70;99.90;;;;;;5015045;28;20083;-78
2021/06/06 12:46:20;;;;;;;22.70;14.30;;;14.80;99.90;;;;;;5006137;28;20037;-78
2021/06/06 12:49:07;;;;;;;23.15;12.90;;;14.70;99.90;;;;;;5020198;28;20042;-81
2021/06/06 12:51:38;;;;;;;23.73;13.40;;;14.80;99.90;;;;;;4974771;28;20132;-78
2021/06/06 12:54:06;;;;;;;25.98;13.38;;;14.80;99.90;;;;;;5004297;28;20038;-78
2021/06/06 12:56:38;;;;;;;24.90;13.63;;;14.70;99.90;;;;;;5012733;28;20042;-78
2021/06/06 12:59:12;;;;;;;25.08;14.27;;;14.80;99.90;;;;;;5009279;28;20084;-78
2021/06/06 13:02:15;;;;;;;30.33;14.52;;;14.80;99.90;;;;;;5032229;28;20033;-78
2021/06/06 13:05:07;;;;;;;24.73;13.90;;;14.90;99.90;;;;;;5027775;28;20034;-78
2021/06/06 13:07:39;;;;;;;23.33;14.52;;;14.80;99.90;;;;;;5009696;28;20116;-81
2021/06/06 13:10:31;;;;;;;24.23;14.63;;;14.80;99.90;;;;;;5006529;28;20057;-80